Antonito, CO

12:36 PM MDT on August 29, 2016 (GMT -0600)
Fox Creek | | Change Station

Elev 8451 ft 37.07 °N, 106.22 °W | Updated 22 seconds ago

Scattered Clouds
Scattered Clouds
67.6 °F
Feels Like 67.6 °F
N
7.0
Wind Variable Wind from East

Today
High -- | Low -- °F
--% Chance of Precip.
Yesterday
High -- | Low -- °F
Precip. -- in
Pressure 30.22 in
Visibility 10.0 miles
Clouds Scattered Clouds 11000 ft
Dew Point 43 °F
Humidity 40%
Rainfall 0.00 in
Snow Depth Not available.
6:33 AM 7:37 PM
Waning Crescent, 7% visible
METAR KALS 291752Z AUTO 06004KT 10SM SCT110 17/07 A3043 RMK AO2 LTG DSNT E SLP231 T01670067 10178 20067 50000
Pressure 30.22 in
Visibility 10.0 miles
Clouds Scattered Clouds 11000 ft
Dew Point 43 °F
Humidity 40%
Rainfall 0.00 in
Snow Depth Not available.
6:33 AM 7:37 PM
Waning Crescent, 7% visible
METAR KALS 291752Z AUTO 06004KT 10SM SCT110 17/07 A3043 RMK AO2 LTG DSNT E SLP231 T01670067 10178 20067 50000

10-Day Weather Forecast

Almanac

Astronomy

Aug. 29, 2016 Rise Set
Actual Time
Civil Twilight
Nautical Twilight
Astronomical Twilight
Moon
Length of Visible Light
Length of Day
Tomorrow will be .
, % of the Moon is Illuminated

Today's Extremes

State Highs State Lows

Community

WunderPhotos

Upload Photos

1,935,685 photos uploaded!

WunderBlog® & News

Nearby

Air Quality

  Air Quality AQ Index Pollutant
Not available.

Snow Depth

Station Depth Elevation

Earthquake Activity

City Distance Mag. Time & Date
Minimum magnitude displayed is 2.5.

Coastal Water Temperatures

Place Temperature

Stations

Nearby Weather Stations

Station Location Temp. Windchill Dew Point Humidity Wind Precip. Elev Updated Type
                   

Watches & Warnings

There are currently no watches in effect.